sensor_id;sensor_type;location;lat;lon;timestamp;P1;durP1;ratioP1;P2;durP2;ratioP2
8317;SDS011;4196;48.926;8.964;2023-10-31T00:00:32;0.30;;;0.30;;
8317;SDS011;4196;48.926;8.964;2023-10-31T00:03:18;0.40;;;0.37;;
8317;SDS011;4196;48.926;8.964;2023-10-31T00:06:05;0.17;;;0.17;;
8317;SDS011;4196;48.926;8.964;2023-10-31T00:08:52;1.77;;;0.40;;
8317;SDS011;4196;48.926;8.964;2023-10-31T00:11:39;0.30;;;0.30;;
8317;SDS011;4196;48.926;8.964;2023-10-31T00:14:27;0.30;;;0.30;;
8317;SDS011;4196;48.926;8.964;2023-10-31T00:17:16;0.30;;;0.27;;
8317;SDS011;4196;48.926;8.964;2023-10-31T00:20:03;0.67;;;0.67;;
8317;SDS011;4196;48.926;8.964;2023-10-31T00:22:51;0.73;;;0.60;;
8317;SDS011;4196;48.926;8.964;2023-10-31T00:25:38;0.40;;;0.40;;
8317;SDS011;4196;48.926;8.964;2023-10-31T00:28:24;0.40;;;0.40;;
8317;SDS011;4196;48.926;8.964;2023-10-31T00:31:11;0.87;;;0.57;;
8317;SDS011;4196;48.926;8.964;2023-10-31T00:33:57;0.33;;;0.33;;
8317;SDS011;4196;48.926;8.964;2023-10-31T00:36:44;0.20;;;0.20;;
8317;SDS011;4196;48.926;8.964;2023-10-31T00:39:30;0.80;;;0.70;;
8317;SDS011;4196;48.926;8.964;2023-10-31T00:42:17;0.70;;;0.70;;
8317;SDS011;4196;48.926;8.964;2023-10-31T00:45:03;0.60;;;0.57;;
8317;SDS011;4196;48.926;8.964;2023-10-31T00:47:50;0.30;;;0.30;;
8317;SDS011;4196;48.926;8.964;2023-10-31T00:50:36;0.60;;;0.30;;
8317;SDS011;4196;48.926;8.964;2023-10-31T00:53:22;0.83;;;0.57;;
8317;SDS011;4196;48.926;8.964;2023-10-31T00:56:09;0.30;;;0.30;;
8317;SDS011;4196;48.926;8.964;2023-10-31T00:58:55;0.67;;;0.57;;
8317;SDS011;4196;48.926;8.964;2023-10-31T01:01:42;0.50;;;0.50;;
8317;SDS011;4196;48.926;8.964;2023-10-31T01:04:29;0.63;;;0.40;;
8317;SDS011;4196;48.926;8.964;2023-10-31T01:07:17;2.40;;;0.80;;
8317;SDS011;4196;48.926;8.964;2023-10-31T01:10:03;1.13;;;0.50;;
8317;SDS011;4196;48.926;8.964;2023-10-31T01:12:50;1.43;;;0.67;;
8317;SDS011;4196;48.926;8.964;2023-10-31T01:15:37;0.50;;;0.50;;
8317;SDS011;4196;48.926;8.964;2023-10-31T01:18:23;1.00;;;0.70;;
8317;SDS011;4196;48.926;8.964;2023-10-31T01:21:10;0.57;;;0.57;;
8317;SDS011;4196;48.926;8.964;2023-10-31T01:23:57;0.50;;;0.50;;
8317;SDS011;4196;48.926;8.964;2023-10-31T01:26:44;1.30;;;0.60;;
8317;SDS011;4196;48.926;8.964;2023-10-31T01:29:31;0.47;;;0.43;;
8317;SDS011;4196;48.926;8.964;2023-10-31T01:32:17;0.77;;;0.73;;
8317;SDS011;4196;48.926;8.964;2023-10-31T01:35:07;0.60;;;0.60;;
8317;SDS011;4196;48.926;8.964;2023-10-31T01:37:54;0.70;;;0.60;;
8317;SDS011;4196;48.926;8.964;2023-10-31T01:40:40;0.40;;;0.40;;
8317;SDS011;4196;48.926;8.964;2023-10-31T01:43:34;0.60;;;0.60;;
8317;SDS011;4196;48.926;8.964;2023-10-31T01:46:22;0.90;;;0.87;;
8317;SDS011;4196;48.926;8.964;2023-10-31T01:49:08;0.67;;;0.50;;
8317;SDS011;4196;48.926;8.964;2023-10-31T01:51:55;1.03;;;0.60;;
8317;SDS011;4196;48.926;8.964;2023-10-31T01:54:43;0.77;;;0.57;;
8317;SDS011;4196;48.926;8.964;2023-10-31T01:57:30;0.80;;;0.60;;
8317;SDS011;4196;48.926;8.964;2023-10-31T02:00:16;0.87;;;0.50;;
8317;SDS011;4196;48.926;8.964;2023-10-31T02:03:03;0.90;;;0.50;;
8317;SDS011;4196;48.926;8.964;2023-10-31T02:05:51;0.60;;;0.40;;
8317;SDS011;4196;48.926;8.964;2023-10-31T02:08:38;1.93;;;0.63;;
8317;SDS011;4196;48.926;8.964;2023-10-31T02:11:25;1.47;;;0.53;;
8317;SDS011;4196;48.926;8.964;2023-10-31T02:14:12;0.53;;;0.53;;
8317;SDS011;4196;48.926;8.964;2023-10-31T02:16:58;0.40;;;0.40;;
8317;SDS011;4196;48.926;8.964;2023-10-31T02:19:45;0.50;;;0.50;;
8317;SDS011;4196;48.926;8.964;2023-10-31T02:22:31;1.50;;;0.87;;
8317;SDS011;4196;48.926;8.964;2023-10-31T02:25:18;2.83;;;1.00;;
8317;SDS011;4196;48.926;8.964;2023-10-31T02:28:04;2.70;;;0.50;;
8317;SDS011;4196;48.926;8.964;2023-10-31T02:30:50;0.93;;;0.93;;
8317;SDS011;4196;48.926;8.964;2023-10-31T02:33:37;2.53;;;0.80;;
8317;SDS011;4196;48.926;8.964;2023-10-31T02:36:24;0.70;;;0.70;;
8317;SDS011;4196;48.926;8.964;2023-10-31T02:39:10;0.40;;;0.40;;
8317;SDS011;4196;48.926;8.964;2023-10-31T02:41:57;0.57;;;0.50;;
8317;SDS011;4196;48.926;8.964;2023-10-31T02:44:44;1.00;;;0.60;;
8317;SDS011;4196;48.926;8.964;2023-10-31T02:47:30;1.83;;;0.60;;
8317;SDS011;4196;48.926;8.964;2023-10-31T02:50:17;1.47;;;0.67;;
8317;SDS011;4196;48.926;8.964;2023-10-31T02:53:03;1.10;;;0.73;;
8317;SDS011;4196;48.926;8.964;2023-10-31T02:55:50;1.50;;;0.70;;
8317;SDS011;4196;48.926;8.964;2023-10-31T02:58:36;1.10;;;0.80;;
8317;SDS011;4196;48.926;8.964;2023-10-31T03:01:22;1.17;;;0.53;;
8317;SDS011;4196;48.926;8.964;2023-10-31T03:04:09;0.43;;;0.43;;
8317;SDS011;4196;48.926;8.964;2023-10-31T03:06:55;0.53;;;0.50;;
8317;SDS011;4196;48.926;8.964;2023-10-31T03:09:42;1.03;;;0.60;;
8317;SDS011;4196;48.926;8.964;2023-10-31T03:12:28;0.70;;;0.70;;
8317;SDS011;4196;48.926;8.964;2023-10-31T03:15:15;0.93;;;0.40;;
8317;SDS011;4196;48.926;8.964;2023-10-31T03:18:02;1.73;;;0.70;;
8317;SDS011;4196;48.926;8.964;2023-10-31T03:20:49;1.80;;;0.40;;
8317;SDS011;4196;48.926;8.964;2023-10-31T03:23:35;1.37;;;0.63;;
8317;SDS011;4196;48.926;8.964;2023-10-31T03:26:22;1.13;;;0.70;;
8317;SDS011;4196;48.926;8.964;2023-10-31T03:29:08;0.97;;;0.60;;
8317;SDS011;4196;48.926;8.964;2023-10-31T03:31:57;1.50;;;0.50;;
8317;SDS011;4196;48.926;8.964;2023-10-31T03:34:44;0.97;;;0.73;;
8317;SDS011;4196;48.926;8.964;2023-10-31T03:37:31;0.50;;;0.50;;
8317;SDS011;4196;48.926;8.964;2023-10-31T03:40:17;0.40;;;0.40;;
8317;SDS011;4196;48.926;8.964;2023-10-31T03:43:04;1.10;;;0.43;;
8317;SDS011;4196;48.926;8.964;2023-10-31T03:45:51;1.83;;;0.60;;
8317;SDS011;4196;48.926;8.964;2023-10-31T03:48:37;0.60;;;0.50;;
8317;SDS011;4196;48.926;8.964;2023-10-31T03:51:24;1.33;;;0.50;;
8317;SDS011;4196;48.926;8.964;2023-10-31T03:54:10;0.50;;;0.50;;
8317;SDS011;4196;48.926;8.964;2023-10-31T03:56:57;1.07;;;0.80;;
8317;SDS011;4196;48.926;8.964;2023-10-31T03:59:44;3.30;;;1.03;;
8317;SDS011;4196;48.926;8.964;2023-10-31T04:02:30;0.60;;;0.60;;
8317;SDS011;4196;48.926;8.964;2023-10-31T04:05:17;1.47;;;0.50;;
8317;SDS011;4196;48.926;8.964;2023-10-31T04:08:04;1.60;;;0.53;;
8317;SDS011;4196;48.926;8.964;2023-10-31T04:10:51;2.07;;;1.03;;
8317;SDS011;4196;48.926;8.964;2023-10-31T04:13:37;0.93;;;0.47;;
8317;SDS011;4196;48.926;8.964;2023-10-31T04:16:24;0.77;;;0.77;;
8317;SDS011;4196;48.926;8.964;2023-10-31T04:19:11;0.93;;;0.77;;
8317;SDS011;4196;48.926;8.964;2023-10-31T04:21:59;0.50;;;0.50;;
8317;SDS011;4196;48.926;8.964;2023-10-31T04:24:46;1.43;;;1.13;;
8317;SDS011;4196;48.926;8.964;2023-10-31T04:27:33;1.43;;;0.53;;
8317;SDS011;4196;48.926;8.964;2023-10-31T04:30:19;1.37;;;0.40;;
8317;SDS011;4196;48.926;8.964;2023-10-31T04:33:05;2.93;;;0.80;;
8317;SDS011;4196;48.926;8.964;2023-10-31T04:35:52;0.17;;;0.17;;
8317;SDS011;4196;48.926;8.964;2023-10-31T04:38:38;0.73;;;0.60;;
8317;SDS011;4196;48.926;8.964;2023-10-31T04:41:25;3.00;;;0.47;;
8317;SDS011;4196;48.926;8.964;2023-10-31T04:44:11;1.47;;;0.60;;
8317;SDS011;4196;48.926;8.964;2023-10-31T04:46:58;0.77;;;0.60;;
8317;SDS011;4196;48.926;8.964;2023-10-31T04:49:44;0.50;;;0.50;;
8317;SDS011;4196;48.926;8.964;2023-10-31T04:52:31;0.60;;;0.60;;
8317;SDS011;4196;48.926;8.964;2023-10-31T04:55:17;0.70;;;0.50;;
8317;SDS011;4196;48.926;8.964;2023-10-31T04:58:04;0.67;;;0.60;;
8317;SDS011;4196;48.926;8.964;2023-10-31T05:00:50;1.07;;;0.60;;
8317;SDS011;4196;48.926;8.964;2023-10-31T05:03:37;0.20;;;0.20;;
8317;SDS011;4196;48.926;8.964;2023-10-31T05:06:23;0.60;;;0.50;;
8317;SDS011;4196;48.926;8.964;2023-10-31T05:09:10;0.50;;;0.33;;
8317;SDS011;4196;48.926;8.964;2023-10-31T05:11:57;0.43;;;0.43;;
8317;SDS011;4196;48.926;8.964;2023-10-31T05:14:44;0.80;;;0.70;;
8317;SDS011;4196;48.926;8.964;2023-10-31T05:17:30;2.57;;;0.60;;
8317;SDS011;4196;48.926;8.964;2023-10-31T05:20:17;0.50;;;0.50;;
8317;SDS011;4196;48.926;8.964;2023-10-31T05:23:03;0.40;;;0.40;;
8317;SDS011;4196;48.926;8.964;2023-10-31T05:25:50;0.77;;;0.53;;
8317;SDS011;4196;48.926;8.964;2023-10-31T05:28:36;0.70;;;0.70;;
8317;SDS011;4196;48.926;8.964;2023-10-31T05:31:23;0.50;;;0.50;;
8317;SDS011;4196;48.926;8.964;2023-10-31T05:34:10;1.13;;;0.60;;
8317;SDS011;4196;48.926;8.964;2023-10-31T05:36:56;0.53;;;0.53;;
8317;SDS011;4196;48.926;8.964;2023-10-31T05:39:43;1.60;;;0.90;;
8317;SDS011;4196;48.926;8.964;2023-10-31T05:42:29;0.70;;;0.70;;
8317;SDS011;4196;48.926;8.964;2023-10-31T05:45:16;0.50;;;0.50;;
8317;SDS011;4196;48.926;8.964;2023-10-31T05:48:02;0.70;;;0.70;;
8317;SDS011;4196;48.926;8.964;2023-10-31T05:50:50;0.83;;;0.83;;
8317;SDS011;4196;48.926;8.964;2023-10-31T05:53:36;0.60;;;0.60;;
8317;SDS011;4196;48.926;8.964;2023-10-31T05:56:22;1.83;;;0.57;;
8317;SDS011;4196;48.926;8.964;2023-10-31T05:59:09;0.50;;;0.50;;
8317;SDS011;4196;48.926;8.964;2023-10-31T06:01:56;0.47;;;0.40;;
8317;SDS011;4196;48.926;8.964;2023-10-31T06:04:42;0.40;;;0.40;;
8317;SDS011;4196;48.926;8.964;2023-10-31T06:07:28;1.80;;;0.60;;
8317;SDS011;4196;48.926;8.964;2023-10-31T06:10:15;0.83;;;0.83;;
8317;SDS011;4196;48.926;8.964;2023-10-31T06:13:01;1.13;;;0.67;;
8317;SDS011;4196;48.926;8.964;2023-10-31T06:15:48;0.33;;;0.33;;
8317;SDS011;4196;48.926;8.964;2023-10-31T06:18:34;0.70;;;0.60;;
8317;SDS011;4196;48.926;8.964;2023-10-31T06:21:21;0.70;;;0.40;;
8317;SDS011;4196;48.926;8.964;2023-10-31T06:24:07;0.50;;;0.50;;
8317;SDS011;4196;48.926;8.964;2023-10-31T06:26:54;3.10;;;0.73;;
8317;SDS011;4196;48.926;8.964;2023-10-31T06:29:40;1.50;;;0.43;;
8317;SDS011;4196;48.926;8.964;2023-10-31T06:32:46;0.30;;;0.30;;
8317;SDS011;4196;48.926;8.964;2023-10-31T06:35:35;0.43;;;0.43;;
8317;SDS011;4196;48.926;8.964;2023-10-31T06:38:25;1.23;;;0.57;;
8317;SDS011;4196;48.926;8.964;2023-10-31T06:41:45;0.73;;;0.70;;
8317;SDS011;4196;48.926;8.964;2023-10-31T06:44:31;1.50;;;0.53;;
8317;SDS011;4196;48.926;8.964;2023-10-31T06:47:18;0.27;;;0.20;;
8317;SDS011;4196;48.926;8.964;2023-10-31T06:50:05;1.03;;;0.70;;
8317;SDS011;4196;48.926;8.964;2023-10-31T06:52:53;2.10;;;0.40;;
8317;SDS011;4196;48.926;8.964;2023-10-31T06:55:39;3.03;;;0.60;;
8317;SDS011;4196;48.926;8.964;2023-10-31T06:58:26;0.53;;;0.53;;
8317;SDS011;4196;48.926;8.964;2023-10-31T07:01:12;0.40;;;0.40;;
8317;SDS011;4196;48.926;8.964;2023-10-31T07:04:01;1.70;;;0.93;;
8317;SDS011;4196;48.926;8.964;2023-10-31T07:06:47;0.73;;;0.40;;
8317;SDS011;4196;48.926;8.964;2023-10-31T07:09:33;0.40;;;0.40;;
8317;SDS011;4196;48.926;8.964;2023-10-31T07:12:20;2.07;;;0.70;;
8317;SDS011;4196;48.926;8.964;2023-10-31T07:15:07;2.30;;;0.63;;
8317;SDS011;4196;48.926;8.964;2023-10-31T07:17:53;0.70;;;0.67;;
8317;SDS011;4196;48.926;8.964;2023-10-31T07:20:40;0.73;;;0.57;;
8317;SDS011;4196;48.926;8.964;2023-10-31T07:23:26;1.60;;;0.50;;
8317;SDS011;4196;48.926;8.964;2023-10-31T07:26:13;1.57;;;0.90;;
8317;SDS011;4196;48.926;8.964;2023-10-31T07:28:59;1.97;;;0.63;;
8317;SDS011;4196;48.926;8.964;2023-10-31T07:31:46;1.57;;;0.77;;
8317;SDS011;4196;48.926;8.964;2023-10-31T07:34:32;0.50;;;0.50;;
8317;SDS011;4196;48.926;8.964;2023-10-31T07:37:19;7.93;;;1.50;;
8317;SDS011;4196;48.926;8.964;2023-10-31T07:40:07;2.13;;;0.90;;
8317;SDS011;4196;48.926;8.964;2023-10-31T07:42:54;1.47;;;1.00;;
8317;SDS011;4196;48.926;8.964;2023-10-31T07:45:41;1.33;;;0.93;;
8317;SDS011;4196;48.926;8.964;2023-10-31T07:48:28;0.87;;;0.67;;
8317;SDS011;4196;48.926;8.964;2023-10-31T07:51:15;2.30;;;1.10;;
8317;SDS011;4196;48.926;8.964;2023-10-31T07:54:01;1.33;;;0.80;;
8317;SDS011;4196;48.926;8.964;2023-10-31T07:56:48;0.63;;;0.63;;
8317;SDS011;4196;48.926;8.964;2023-10-31T07:59:34;1.17;;;0.50;;
8317;SDS011;4196;48.926;8.964;2023-10-31T08:02:21;0.60;;;0.60;;
8317;SDS011;4196;48.926;8.964;2023-10-31T08:05:09;3.43;;;1.07;;
8317;SDS011;4196;48.926;8.964;2023-10-31T08:07:57;1.97;;;0.63;;
8317;SDS011;4196;48.926;8.964;2023-10-31T08:10:45;1.40;;;0.90;;
8317;SDS011;4196;48.926;8.964;2023-10-31T08:13:32;1.87;;;0.93;;
8317;SDS011;4196;48.926;8.964;2023-10-31T08:16:18;2.47;;;0.80;;
8317;SDS011;4196;48.926;8.964;2023-10-31T08:19:05;2.23;;;0.77;;
8317;SDS011;4196;48.926;8.964;2023-10-31T08:21:52;1.13;;;0.63;;
8317;SDS011;4196;48.926;8.964;2023-10-31T08:24:40;0.80;;;0.80;;
8317;SDS011;4196;48.926;8.964;2023-10-31T08:27:27;4.57;;;1.00;;
8317;SDS011;4196;48.926;8.964;2023-10-31T08:30:13;0.80;;;0.80;;
8317;SDS011;4196;48.926;8.964;2023-10-31T08:33:00;0.90;;;0.70;;
8317;SDS011;4196;48.926;8.964;2023-10-31T08:35:46;4.83;;;1.30;;
8317;SDS011;4196;48.926;8.964;2023-10-31T08:38:34;1.80;;;0.90;;
8317;SDS011;4196;48.926;8.964;2023-10-31T08:41:20;2.20;;;0.93;;
8317;SDS011;4196;48.926;8.964;2023-10-31T08:44:08;2.63;;;0.90;;
8317;SDS011;4196;48.926;8.964;2023-10-31T08:46:54;1.53;;;0.70;;
8317;SDS011;4196;48.926;8.964;2023-10-31T08:49:41;3.27;;;1.10;;
8317;SDS011;4196;48.926;8.964;2023-10-31T08:52:27;3.47;;;0.90;;
8317;SDS011;4196;48.926;8.964;2023-10-31T08:55:14;2.17;;;0.90;;
8317;SDS011;4196;48.926;8.964;2023-10-31T08:58:03;0.67;;;0.67;;
8317;SDS011;4196;48.926;8.964;2023-10-31T09:01:00;4.97;;;1.30;;
8317;SDS011;4196;48.926;8.964;2023-10-31T09:03:46;3.70;;;1.10;;
8317;SDS011;4196;48.926;8.964;2023-10-31T09:06:33;2.83;;;1.40;;
8317;SDS011;4196;48.926;8.964;2023-10-31T09:09:20;1.33;;;0.90;;
8317;SDS011;4196;48.926;8.964;2023-10-31T09:12:06;0.50;;;0.50;;
8317;SDS011;4196;48.926;8.964;2023-10-31T09:14:53;3.63;;;1.00;;
8317;SDS011;4196;48.926;8.964;2023-10-31T09:17:40;1.70;;;0.70;;
8317;SDS011;4196;48.926;8.964;2023-10-31T09:20:26;1.20;;;1.00;;
8317;SDS011;4196;48.926;8.964;2023-10-31T09:23:14;1.43;;;0.60;;
8317;SDS011;4196;48.926;8.964;2023-10-31T09:26:00;1.53;;;1.00;;
8317;SDS011;4196;48.926;8.964;2023-10-31T09:28:47;1.47;;;1.10;;
8317;SDS011;4196;48.926;8.964;2023-10-31T09:31:36;1.90;;;0.80;;
8317;SDS011;4196;48.926;8.964;2023-10-31T09:34:24;3.80;;;0.97;;
8317;SDS011;4196;48.926;8.964;2023-10-31T09:37:10;1.77;;;0.77;;
8317;SDS011;4196;48.926;8.964;2023-10-31T09:39:57;1.60;;;1.00;;
8317;SDS011;4196;48.926;8.964;2023-10-31T09:42:44;2.27;;;0.93;;
8317;SDS011;4196;48.926;8.964;2023-10-31T09:45:31;2.87;;;1.27;;
8317;SDS011;4196;48.926;8.964;2023-10-31T09:48:19;2.03;;;0.90;;
8317;SDS011;4196;48.926;8.964;2023-10-31T09:51:06;2.30;;;1.00;;
8317;SDS011;4196;48.926;8.964;2023-10-31T09:53:53;2.40;;;0.77;;
8317;SDS011;4196;48.926;8.964;2023-10-31T09:56:41;2.53;;;1.17;;
8317;SDS011;4196;48.926;8.964;2023-10-31T09:59:27;2.57;;;0.93;;
8317;SDS011;4196;48.926;8.964;2023-10-31T10:02:14;8.40;;;2.70;;
8317;SDS011;4196;48.926;8.964;2023-10-31T10:05:00;4.97;;;1.50;;
8317;SDS011;4196;48.926;8.964;2023-10-31T10:07:46;6.60;;;1.73;;
8317;SDS011;4196;48.926;8.964;2023-10-31T10:10:33;2.30;;;1.43;;
8317;SDS011;4196;48.926;8.964;2023-10-31T10:13:20;2.37;;;1.20;;
8317;SDS011;4196;48.926;8.964;2023-10-31T10:16:07;5.37;;;1.30;;
8317;SDS011;4196;48.926;8.964;2023-10-31T10:18:54;3.30;;;1.27;;
8317;SDS011;4196;48.926;8.964;2023-10-31T10:21:50;2.60;;;0.80;;
8317;SDS011;4196;48.926;8.964;2023-10-31T10:24:41;3.97;;;1.13;;
8317;SDS011;4196;48.926;8.964;2023-10-31T10:27:28;2.00;;;0.90;;
8317;SDS011;4196;48.926;8.964;2023-10-31T10:30:14;1.20;;;1.10;;
8317;SDS011;4196;48.926;8.964;2023-10-31T10:33:01;2.90;;;1.00;;
8317;SDS011;4196;48.926;8.964;2023-10-31T10:35:48;2.17;;;0.93;;
8317;SDS011;4196;48.926;8.964;2023-10-31T10:38:34;4.47;;;1.10;;
8317;SDS011;4196;48.926;8.964;2023-10-31T10:41:22;1.30;;;0.67;;
8317;SDS011;4196;48.926;8.964;2023-10-31T10:44:12;1.93;;;0.83;;
8317;SDS011;4196;48.926;8.964;2023-10-31T10:47:01;3.47;;;1.00;;
8317;SDS011;4196;48.926;8.964;2023-10-31T10:49:50;0.97;;;0.90;;
8317;SDS011;4196;48.926;8.964;2023-10-31T10:52:49;3.63;;;0.87;;
8317;SDS011;4196;48.926;8.964;2023-10-31T10:55:44;2.20;;;0.90;;
8317;SDS011;4196;48.926;8.964;2023-10-31T10:58:33;2.17;;;0.67;;
8317;SDS011;4196;48.926;8.964;2023-10-31T11:01:25;1.87;;;0.70;;
8317;SDS011;4196;48.926;8.964;2023-10-31T11:04:14;2.20;;;0.80;;
8317;SDS011;4196;48.926;8.964;2023-10-31T11:07:01;2.70;;;0.67;;
8317;SDS011;4196;48.926;8.964;2023-10-31T11:09:48;1.27;;;0.80;;
8317;SDS011;4196;48.926;8.964;2023-10-31T11:12:36;0.73;;;0.60;;
8317;SDS011;4196;48.926;8.964;2023-10-31T11:15:24;3.90;;;0.90;;
8317;SDS011;4196;48.926;8.964;2023-10-31T11:18:12;2.30;;;1.10;;
8317;SDS011;4196;48.926;8.964;2023-10-31T11:20:58;1.10;;;0.50;;
8317;SDS011;4196;48.926;8.964;2023-10-31T11:23:45;0.70;;;0.50;;
8317;SDS011;4196;48.926;8.964;2023-10-31T11:26:32;3.13;;;0.60;;
8317;SDS011;4196;48.926;8.964;2023-10-31T11:29:21;0.70;;;0.50;;
8317;SDS011;4196;48.926;8.964;2023-10-31T11:32:08;1.10;;;0.67;;
8317;SDS011;4196;48.926;8.964;2023-10-31T11:34:58;1.80;;;0.60;;
8317;SDS011;4196;48.926;8.964;2023-10-31T11:37:49;1.20;;;0.53;;
8317;SDS011;4196;48.926;8.964;2023-10-31T11:40:57;1.80;;;0.90;;
8317;SDS011;4196;48.926;8.964;2023-10-31T11:43:50;2.93;;;0.80;;
8317;SDS011;4196;48.926;8.964;2023-10-31T11:46:38;0.70;;;0.70;;
8317;SDS011;4196;48.926;8.964;2023-10-31T11:49:45;2.17;;;1.13;;
8317;SDS011;4196;48.926;8.964;2023-10-31T11:52:32;1.33;;;0.60;;
8317;SDS011;4196;48.926;8.964;2023-10-31T11:55:19;1.57;;;1.47;;
8317;SDS011;4196;48.926;8.964;2023-10-31T11:58:24;2.07;;;1.50;;
8317;SDS011;4196;48.926;8.964;2023-10-31T12:01:16;3.70;;;2.30;;
8317;SDS011;4196;48.926;8.964;2023-10-31T12:04:02;3.00;;;2.40;;
8317;SDS011;4196;48.926;8.964;2023-10-31T12:06:59;3.20;;;2.37;;
8317;SDS011;4196;48.926;8.964;2023-10-31T12:09:47;4.50;;;2.60;;
8317;SDS011;4196;48.926;8.964;2023-10-31T12:12:33;3.07;;;2.13;;
8317;SDS011;4196;48.926;8.964;2023-10-31T12:15:20;2.27;;;2.07;;
8317;SDS011;4196;48.926;8.964;2023-10-31T12:18:06;4.07;;;2.20;;
8317;SDS011;4196;48.926;8.964;2023-10-31T12:20:53;3.67;;;2.17;;
8317;SDS011;4196;48.926;8.964;2023-10-31T12:23:39;5.13;;;3.13;;
8317;SDS011;4196;48.926;8.964;2023-10-31T12:26:26;4.87;;;2.90;;
8317;SDS011;4196;48.926;8.964;2023-10-31T12:29:13;4.47;;;2.90;;
8317;SDS011;4196;48.926;8.964;2023-10-31T12:31:59;4.70;;;2.80;;
8317;SDS011;4196;48.926;8.964;2023-10-31T12:34:46;4.93;;;2.67;;
8317;SDS011;4196;48.926;8.964;2023-10-31T12:37:32;5.77;;;3.20;;
8317;SDS011;4196;48.926;8.964;2023-10-31T12:40:20;5.83;;;2.83;;
8317;SDS011;4196;48.926;8.964;2023-10-31T12:43:07;3.03;;;2.10;;
8317;SDS011;4196;48.926;8.964;2023-10-31T12:45:54;4.53;;;2.57;;
8317;SDS011;4196;48.926;8.964;2023-10-31T12:48:40;4.93;;;2.00;;
8317;SDS011;4196;48.926;8.964;2023-10-31T12:51:27;2.33;;;1.70;;
8317;SDS011;4196;48.926;8.964;2023-10-31T12:54:13;5.60;;;1.50;;
8317;SDS011;4196;48.926;8.964;2023-10-31T12:57:13;1.27;;;1.10;;
8317;SDS011;4196;48.926;8.964;2023-10-31T13:00:00;1.33;;;1.20;;
8317;SDS011;4196;48.926;8.964;2023-10-31T13:02:46;1.97;;;0.97;;
8317;SDS011;4196;48.926;8.964;2023-10-31T13:05:32;1.90;;;1.13;;
8317;SDS011;4196;48.926;8.964;2023-10-31T13:08:19;2.00;;;0.80;;
8317;SDS011;4196;48.926;8.964;2023-10-31T13:11:07;1.70;;;0.73;;
8317;SDS011;4196;48.926;8.964;2023-10-31T13:13:55;0.70;;;0.70;;
8317;SDS011;4196;48.926;8.964;2023-10-31T13:16:42;2.83;;;1.07;;
8317;SDS011;4196;48.926;8.964;2023-10-31T13:19:29;1.03;;;0.80;;
8317;SDS011;4196;48.926;8.964;2023-10-31T13:22:15;1.27;;;0.50;;
8317;SDS011;4196;48.926;8.964;2023-10-31T13:25:02;0.73;;;0.60;;
8317;SDS011;4196;48.926;8.964;2023-10-31T13:27:53;0.57;;;0.57;;
8317;SDS011;4196;48.926;8.964;2023-10-31T13:30:41;1.03;;;0.43;;
8317;SDS011;4196;48.926;8.964;2023-10-31T13:33:27;0.80;;;0.53;;
8317;SDS011;4196;48.926;8.964;2023-10-31T13:36:13;1.03;;;0.70;;
8317;SDS011;4196;48.926;8.964;2023-10-31T13:39:01;0.50;;;0.43;;
8317;SDS011;4196;48.926;8.964;2023-10-31T13:41:47;0.50;;;0.50;;
8317;SDS011;4196;48.926;8.964;2023-10-31T13:44:34;2.17;;;0.60;;
8317;SDS011;4196;48.926;8.964;2023-10-31T13:47:21;1.23;;;0.63;;
8317;SDS011;4196;48.926;8.964;2023-10-31T13:50:07;3.13;;;1.20;;
8317;SDS011;4196;48.926;8.964;2023-10-31T13:52:55;1.60;;;1.50;;
8317;SDS011;4196;48.926;8.964;2023-10-31T13:55:42;0.93;;;0.87;;
8317;SDS011;4196;48.926;8.964;2023-10-31T13:58:29;3.57;;;1.57;;
8317;SDS011;4196;48.926;8.964;2023-10-31T14:01:15;4.37;;;1.63;;
8317;SDS011;4196;48.926;8.964;2023-10-31T14:04:02;0.87;;;0.70;;
8317;SDS011;4196;48.926;8.964;2023-10-31T14:06:48;12.90;;;6.50;;
8317;SDS011;4196;48.926;8.964;2023-10-31T14:09:35;5.77;;;3.90;;
8317;SDS011;4196;48.926;8.964;2023-10-31T14:12:22;2.47;;;1.10;;
8317;SDS011;4196;48.926;8.964;2023-10-31T14:15:09;4.80;;;2.73;;
8317;SDS011;4196;48.926;8.964;2023-10-31T14:17:55;2.07;;;0.67;;
8317;SDS011;4196;48.926;8.964;2023-10-31T14:20:42;14.57;;;3.53;;
8317;SDS011;4196;48.926;8.964;2023-10-31T14:23:29;12.83;;;6.40;;
8317;SDS011;4196;48.926;8.964;2023-10-31T14:26:15;3.00;;;2.00;;
8317;SDS011;4196;48.926;8.964;2023-10-31T14:29:02;11.50;;;5.17;;
8317;SDS011;4196;48.926;8.964;2023-10-31T14:31:51;4.13;;;1.80;;
8317;SDS011;4196;48.926;8.964;2023-10-31T14:34:45;3.43;;;1.87;;
8317;SDS011;4196;48.926;8.964;2023-10-31T14:37:38;0.77;;;0.77;;
8317;SDS011;4196;48.926;8.964;2023-10-31T14:40:26;4.03;;;1.10;;
8317;SDS011;4196;48.926;8.964;2023-10-31T14:43:15;1.20;;;1.13;;
8317;SDS011;4196;48.926;8.964;2023-10-31T14:46:04;1.60;;;0.97;;
8317;SDS011;4196;48.926;8.964;2023-10-31T14:48:51;1.57;;;1.00;;
8317;SDS011;4196;48.926;8.964;2023-10-31T14:51:38;1.37;;;1.07;;
8317;SDS011;4196;48.926;8.964;2023-10-31T14:54:24;1.30;;;0.97;;
8317;SDS011;4196;48.926;8.964;2023-10-31T14:57:11;0.73;;;0.73;;
8317;SDS011;4196;48.926;8.964;2023-10-31T14:59:57;0.60;;;0.40;;
8317;SDS011;4196;48.926;8.964;2023-10-31T15:02:43;1.17;;;0.57;;
8317;SDS011;4196;48.926;8.964;2023-10-31T15:05:30;1.13;;;0.50;;
8317;SDS011;4196;48.926;8.964;2023-10-31T15:08:17;1.40;;;0.70;;
8317;SDS011;4196;48.926;8.964;2023-10-31T15:11:03;0.97;;;0.73;;
8317;SDS011;4196;48.926;8.964;2023-10-31T15:13:50;1.40;;;0.83;;
8317;SDS011;4196;48.926;8.964;2023-10-31T15:16:37;1.63;;;0.73;;
8317;SDS011;4196;48.926;8.964;2023-10-31T15:19:23;2.20;;;0.70;;
8317;SDS011;4196;48.926;8.964;2023-10-31T15:22:10;3.57;;;0.90;;
8317;SDS011;4196;48.926;8.964;2023-10-31T15:24:57;0.70;;;0.70;;
8317;SDS011;4196;48.926;8.964;2023-10-31T15:27:44;2.30;;;0.90;;
8317;SDS011;4196;48.926;8.964;2023-10-31T15:30:31;0.83;;;0.57;;
8317;SDS011;4196;48.926;8.964;2023-10-31T15:33:17;5.23;;;0.60;;
8317;SDS011;4196;48.926;8.964;2023-10-31T15:36:04;0.50;;;0.50;;
8317;SDS011;4196;48.926;8.964;2023-10-31T15:38:50;1.47;;;0.30;;
8317;SDS011;4196;48.926;8.964;2023-10-31T15:41:37;2.77;;;0.77;;
8317;SDS011;4196;48.926;8.964;2023-10-31T15:44:23;2.17;;;1.03;;
8317;SDS011;4196;48.926;8.964;2023-10-31T15:47:10;0.87;;;0.87;;
8317;SDS011;4196;48.926;8.964;2023-10-31T15:49:58;1.07;;;0.70;;
8317;SDS011;4196;48.926;8.964;2023-10-31T15:52:45;0.80;;;0.80;;
8317;SDS011;4196;48.926;8.964;2023-10-31T15:55:32;1.73;;;0.77;;
8317;SDS011;4196;48.926;8.964;2023-10-31T15:58:19;1.00;;;0.70;;
8317;SDS011;4196;48.926;8.964;2023-10-31T16:01:05;0.93;;;0.93;;
8317;SDS011;4196;48.926;8.964;2023-10-31T16:03:52;0.63;;;0.63;;
8317;SDS011;4196;48.926;8.964;2023-10-31T16:06:39;1.07;;;0.70;;
8317;SDS011;4196;48.926;8.964;2023-10-31T16:09:25;1.47;;;0.83;;
8317;SDS011;4196;48.926;8.964;2023-10-31T16:12:11;1.10;;;1.00;;
8317;SDS011;4196;48.926;8.964;2023-10-31T16:14:58;1.87;;;1.27;;
8317;SDS011;4196;48.926;8.964;2023-10-31T16:17:45;1.83;;;1.60;;
8317;SDS011;4196;48.926;8.964;2023-10-31T16:20:31;1.20;;;1.10;;
8317;SDS011;4196;48.926;8.964;2023-10-31T16:23:18;1.57;;;1.27;;
8317;SDS011;4196;48.926;8.964;2023-10-31T16:26:06;2.63;;;1.43;;
8317;SDS011;4196;48.926;8.964;2023-10-31T16:28:53;2.00;;;1.80;;
8317;SDS011;4196;48.926;8.964;2023-10-31T16:31:43;2.57;;;2.00;;
8317;SDS011;4196;48.926;8.964;2023-10-31T16:34:30;1.30;;;1.20;;
8317;SDS011;4196;48.926;8.964;2023-10-31T16:37:17;2.30;;;1.43;;
8317;SDS011;4196;48.926;8.964;2023-10-31T16:40:03;1.53;;;1.43;;
8317;SDS011;4196;48.926;8.964;2023-10-31T16:42:50;2.93;;;1.50;;
8317;SDS011;4196;48.926;8.964;2023-10-31T16:45:36;1.80;;;1.43;;
8317;SDS011;4196;48.926;8.964;2023-10-31T16:48:23;4.27;;;2.60;;
8317;SDS011;4196;48.926;8.964;2023-10-31T16:51:16;2.13;;;1.53;;
8317;SDS011;4196;48.926;8.964;2023-10-31T16:54:04;2.20;;;1.50;;
8317;SDS011;4196;48.926;8.964;2023-10-31T16:56:50;2.73;;;1.70;;
8317;SDS011;4196;48.926;8.964;2023-10-31T16:59:37;2.03;;;1.30;;
8317;SDS011;4196;48.926;8.964;2023-10-31T17:02:23;1.40;;;1.30;;
8317;SDS011;4196;48.926;8.964;2023-10-31T17:05:09;2.20;;;1.80;;
8317;SDS011;4196;48.926;8.964;2023-10-31T17:07:56;1.43;;;1.33;;
8317;SDS011;4196;48.926;8.964;2023-10-31T17:10:42;2.77;;;1.30;;
8317;SDS011;4196;48.926;8.964;2023-10-31T17:13:29;3.43;;;1.97;;
8317;SDS011;4196;48.926;8.964;2023-10-31T17:16:18;2.37;;;1.67;;
8317;SDS011;4196;48.926;8.964;2023-10-31T17:19:06;2.87;;;1.50;;